createdAt,value
2018-08-03T00:00:10.478Z,23.30
2018-08-03T00:02:39.622Z,23.50
2018-08-03T00:05:08.559Z,22.70
2018-08-03T00:07:37.479Z,22.50
2018-08-03T00:10:07.042Z,22.80
2018-08-03T00:12:36.050Z,22.30
2018-08-03T00:15:05.910Z,22.70
2018-08-03T00:17:34.811Z,22.50
2018-08-03T00:20:04.370Z,21.20
2018-08-03T00:22:33.267Z,21.10
2018-08-03T00:25:02.864Z,22.20
2018-08-03T00:27:32.079Z,22.50
2018-08-03T00:30:00.986Z,21.80
2018-08-03T00:32:29.882Z,21.80
2018-08-03T00:34:58.846Z,21.10
2018-08-03T00:37:27.719Z,20.70
2018-08-03T00:42:25.126Z,20.80
2018-08-03T00:44:54.092Z,20.80
2018-08-03T00:49:51.592Z,22.00
2018-08-03T00:52:20.538Z,21.60
2018-08-03T00:54:49.398Z,21.80
2018-08-03T00:57:18.322Z,21.70
2018-08-03T00:59:47.246Z,21.80
2018-08-03T01:02:16.225Z,22.10
2018-08-03T01:04:45.146Z,22.00
2018-08-03T01:07:13.994Z,21.50
2018-08-03T01:09:42.942Z,21.90
2018-08-03T01:12:11.896Z,21.70
2018-08-03T01:14:40.775Z,21.40
2018-08-03T01:17:10.066Z,21.60
2018-08-03T01:22:07.506Z,21.40
2018-08-03T01:24:36.429Z,21.60
2018-08-03T01:29:34.047Z,21.40
2018-08-03T01:32:03.015Z,21.60
2018-08-03T01:34:31.905Z,21.50
2018-08-03T01:37:00.762Z,21.50
2018-08-03T01:41:58.180Z,22.20
2018-08-03T01:44:27.062Z,22.10
2018-08-03T01:46:55.951Z,22.20
2018-08-03T01:49:24.894Z,22.30
2018-08-03T01:51:53.811Z,22.40
2018-08-03T01:54:23.198Z,22.50
2018-08-03T01:59:20.866Z,22.20
2018-08-03T02:01:49.753Z,21.90
2018-08-03T02:04:18.644Z,21.70
2018-08-03T02:06:47.847Z,21.70
2018-08-03T02:09:16.779Z,21.80
2018-08-03T02:11:45.672Z,21.80
2018-08-03T02:14:14.626Z,22.00
2018-08-03T02:16:43.591Z,21.80
2018-08-03T02:19:13.026Z,21.60
2018-08-03T02:24:10.524Z,21.90
2018-08-03T02:26:39.422Z,21.50
2018-08-03T02:29:08.367Z,21.50
2018-08-03T02:31:37.338Z,21.70
2018-08-03T02:34:06.870Z,21.80
2018-08-03T02:36:36.987Z,22.00
2018-08-03T02:39:07.975Z,21.90
2018-08-03T02:41:37.160Z,21.40
2018-08-03T02:44:06.363Z,20.80
2018-08-03T02:46:35.371Z,20.00
2018-08-03T02:49:04.270Z,19.70
2018-08-03T02:51:33.176Z,19.70
2018-08-03T02:54:02.167Z,19.70
2018-08-03T02:56:31.046Z,19.60
2018-08-03T02:58:59.898Z,19.50
2018-08-03T03:01:29.102Z,19.70
2018-08-03T03:03:58.054Z,19.70
2018-08-03T03:06:26.957Z,20.40
2018-08-03T03:08:55.829Z,20.80
2018-08-03T03:11:24.649Z,20.80
2018-08-03T03:13:53.513Z,20.90
2018-08-03T03:16:22.386Z,21.10
2018-08-03T03:18:51.293Z,20.80
2018-08-03T03:23:48.690Z,20.60
2018-08-03T03:26:17.578Z,20.50
2018-08-03T03:28:46.473Z,20.80
2018-08-03T03:31:15.635Z,21.00
2018-08-03T03:33:44.943Z,20.70
2018-08-03T03:36:13.811Z,20.70
2018-08-03T03:38:43.310Z,20.90
2018-08-03T03:41:12.686Z,21.40
2018-08-03T03:43:41.598Z,21.90
2018-08-03T03:46:10.492Z,21.40
2018-08-03T03:48:39.374Z,19.90
2018-08-03T03:51:08.366Z,19.60
2018-08-03T03:53:37.242Z,20.10
2018-08-03T03:56:06.371Z,20.90
2018-08-03T03:58:35.275Z,21.00
2018-08-03T04:01:04.161Z,21.00
2018-08-03T04:03:33.139Z,20.20
2018-08-03T04:08:30.642Z,20.20
2018-08-03T04:10:59.562Z,21.10
2018-08-03T04:13:28.419Z,21.50
2018-08-03T04:15:57.606Z,20.00
2018-08-03T04:18:26.527Z,19.30
2018-08-03T04:20:55.984Z,18.90
2018-08-03T04:23:25.130Z,19.00
2018-08-03T04:25:54.182Z,19.30
2018-08-03T04:28:23.100Z,19.50
2018-08-03T04:30:51.999Z,20.00
2018-08-03T04:33:20.874Z,20.40
2018-08-03T04:35:49.841Z,20.10
2018-08-03T04:38:18.910Z,19.70
2018-08-03T04:40:48.453Z,19.20
2018-08-03T04:43:17.442Z,19.20
2018-08-03T04:45:46.428Z,19.30
2018-08-03T04:48:15.450Z,19.40
2018-08-03T04:50:44.414Z,19.50
2018-08-03T04:53:13.574Z,20.60
2018-08-03T04:55:42.454Z,21.10
2018-08-03T04:58:11.318Z,20.30
2018-08-03T05:00:40.282Z,19.70
2018-08-03T05:03:09.178Z,19.80
2018-08-03T05:05:38.578Z,20.30
2018-08-03T05:08:07.551Z,21.30
2018-08-03T05:13:05.006Z,22.00
2018-08-03T05:15:34.013Z,20.80
2018-08-03T05:18:02.826Z,20.50
2018-08-03T05:20:31.733Z,20.20
2018-08-03T05:23:00.790Z,20.10
2018-08-03T05:25:29.666Z,20.10
2018-08-03T05:27:58.587Z,20.90
2018-08-03T05:30:27.603Z,21.10
2018-08-03T05:32:56.414Z,21.30
2018-08-03T05:35:25.361Z,21.30
2018-08-03T05:37:54.203Z,21.00
2018-08-03T05:40:23.134Z,21.30
2018-08-03T05:42:52.053Z,22.20
2018-08-03T05:45:21.012Z,21.70
2018-08-03T05:47:49.836Z,21.90
2018-08-03T05:50:18.784Z,21.90
2018-08-03T05:52:47.698Z,22.00
2018-08-03T05:55:16.658Z,22.40
2018-08-03T05:57:45.558Z,22.60
2018-08-03T06:00:14.515Z,22.70
2018-08-03T06:02:43.429Z,22.70
2018-08-03T06:05:12.340Z,22.50
2018-08-03T06:07:41.218Z,22.40
2018-08-03T06:10:10.117Z,22.30
2018-08-03T06:12:38.993Z,22.20
2018-08-03T06:15:08.788Z,22.50
2018-08-03T06:17:37.860Z,22.30
2018-08-03T06:20:08.088Z,22.20
2018-08-03T06:22:37.038Z,22.50
2018-08-03T06:25:06.842Z,22.30
2018-08-03T06:27:35.825Z,22.50
2018-08-03T06:30:05.800Z,22.50
2018-08-03T06:32:35.239Z,22.80
2018-08-03T06:35:04.111Z,23.10
2018-08-03T06:40:02.202Z,23.00
2018-08-03T06:42:31.070Z,22.90
2018-08-03T06:44:59.972Z,23.00
2018-08-03T06:47:28.970Z,23.40
2018-08-03T06:49:57.890Z,23.60
2018-08-03T06:52:26.759Z,23.40
2018-08-03T06:54:55.832Z,23.40
2018-08-03T06:57:25.294Z,23.40
2018-08-03T06:59:54.452Z,23.40
2018-08-03T07:02:23.882Z,23.50
2018-08-03T07:04:52.762Z,23.60
2018-08-03T07:07:21.710Z,23.70
2018-08-03T07:09:50.820Z,23.80
2018-08-03T07:12:19.738Z,24.00
2018-08-03T07:14:48.619Z,24.00
2018-08-03T07:17:17.487Z,24.10
2018-08-03T07:19:46.372Z,24.20
2018-08-03T07:22:15.267Z,24.20
2018-08-03T07:27:12.802Z,24.20
2018-08-03T07:29:43.987Z,24.40
2018-08-03T07:32:12.863Z,24.50
2018-08-03T07:34:42.807Z,24.70
2018-08-03T07:37:12.051Z,24.70
2018-08-03T07:39:41.345Z,24.70
2018-08-03T07:42:10.254Z,24.70
2018-08-03T07:44:43.822Z,24.80
2018-08-03T07:47:12.662Z,24.90
2018-08-03T07:49:41.563Z,25.80
2018-08-03T07:52:11.502Z,25.10
2018-08-03T07:54:43.280Z,25.10
2018-08-03T07:57:12.288Z,25.20
2018-08-03T07:59:41.450Z,25.30
2018-08-03T08:02:10.410Z,25.30
2018-08-03T08:04:41.431Z,25.50
2018-08-03T08:07:10.330Z,25.40
2018-08-03T08:12:08.016Z,25.60
2018-08-03T08:14:38.562Z,25.50
2018-08-03T08:17:07.514Z,25.70
2018-08-03T08:19:36.548Z,25.70
2018-08-03T08:22:05.507Z,25.70
2018-08-03T08:27:02.934Z,25.70
2018-08-03T08:29:38.750Z,25.20
2018-08-03T08:32:07.731Z,26.00
2018-08-03T08:34:36.622Z,25.90
2018-08-03T08:39:34.071Z,26.00
2018-08-03T08:42:03.003Z,26.20
2018-08-03T08:47:00.949Z,26.20
2018-08-03T08:49:30.043Z,26.40
2018-08-03T08:51:59.651Z,26.40
2018-08-03T08:54:28.735Z,26.50
2018-08-03T08:56:58.469Z,26.60
2018-08-03T08:59:27.896Z,26.60
2018-08-03T09:01:57.468Z,26.70
2018-08-03T09:04:26.377Z,26.70
2018-08-03T09:06:55.798Z,26.80
2018-08-03T09:09:24.657Z,26.80
2018-08-03T09:14:22.162Z,26.90
2018-08-03T09:16:51.106Z,27.00
2018-08-03T09:19:20.558Z,27.00
2018-08-03T09:21:49.443Z,27.10
2018-08-03T09:24:20.274Z,27.20
2018-08-03T09:26:49.558Z,27.20
2018-08-03T09:29:18.610Z,27.20
2018-08-03T09:31:47.537Z,27.30
2018-08-03T09:34:16.412Z,27.30
2018-08-03T09:36:46.074Z,27.30
2018-08-03T09:39:15.015Z,27.30
2018-08-03T09:41:44.007Z,27.50
2018-08-03T09:46:41.668Z,27.40
2018-08-03T09:49:10.933Z,27.50
2018-08-03T09:51:39.896Z,27.60
2018-08-03T09:54:08.815Z,27.70
2018-08-03T09:56:37.735Z,27.70
2018-08-03T09:59:07.212Z,27.70
2018-08-03T10:01:36.359Z,27.80
2018-08-03T10:04:05.347Z,27.70
2018-08-03T10:09:02.961Z,27.90
2018-08-03T10:11:32.070Z,27.90
2018-08-03T10:14:05.319Z,28.00
2018-08-03T10:19:02.930Z,28.00
2018-08-03T10:21:31.919Z,28.00
2018-08-03T10:24:00.797Z,28.00
2018-08-03T10:26:29.665Z,28.00
2018-08-03T10:28:58.726Z,27.90
2018-08-03T10:31:28.049Z,28.10
2018-08-03T10:33:56.908Z,28.10
2018-08-03T10:36:25.872Z,28.20
2018-08-03T10:38:55.162Z,28.30
2018-08-03T10:41:24.031Z,28.40
2018-08-03T10:46:22.484Z,28.40
2018-08-03T10:48:52.566Z,28.40
2018-08-03T10:51:21.436Z,28.40
2018-08-03T10:53:50.309Z,28.40
2018-08-03T10:56:19.494Z,28.40
2018-08-03T10:58:48.980Z,28.40
2018-08-03T11:01:17.914Z,28.50
2018-08-03T11:03:46.802Z,28.60
2018-08-03T11:06:16.039Z,28.60
2018-08-03T11:08:45.014Z,28.60
2018-08-03T11:11:13.982Z,28.70
2018-08-03T11:13:42.935Z,28.80
2018-08-03T11:16:11.818Z,28.70
2018-08-03T11:18:40.928Z,28.70
2018-08-03T11:21:10.346Z,28.90
2018-08-03T11:23:39.260Z,28.90
2018-08-03T11:26:08.159Z,28.90
2018-08-03T11:28:37.156Z,28.90
2018-08-03T11:31:06.155Z,28.90
2018-08-03T11:33:35.078Z,28.90
2018-08-03T11:36:04.047Z,28.90
2018-08-03T11:38:32.982Z,29.10
2018-08-03T11:41:01.867Z,29.10
2018-08-03T11:43:31.084Z,29.10
2018-08-03T11:48:28.667Z,29.10
2018-08-03T11:50:57.570Z,29.10
2018-08-03T11:53:26.455Z,29.20
2018-08-03T11:55:55.411Z,29.20
2018-08-03T11:58:24.407Z,29.20
2018-08-03T12:00:53.371Z,29.20
2018-08-03T12:03:22.263Z,29.30
2018-08-03T12:05:51.142Z,29.40
2018-08-03T12:08:20.093Z,29.40
2018-08-03T12:10:49.193Z,29.50
2018-08-03T12:13:18.435Z,29.50
2018-08-03T12:15:47.398Z,29.50
2018-08-03T12:18:16.287Z,29.40
2018-08-03T12:20:46.439Z,29.40
2018-08-03T12:23:15.426Z,29.50
2018-08-03T12:25:44.568Z,29.60
2018-08-03T12:28:13.749Z,29.60
2018-08-03T12:30:42.715Z,29.50
2018-08-03T12:33:12.039Z,29.60
2018-08-03T12:35:41.562Z,29.60
2018-08-03T12:38:10.564Z,29.70
2018-08-03T12:40:39.670Z,29.80
2018-08-03T12:43:08.877Z,29.80
2018-08-03T12:45:38.134Z,29.80
2018-08-03T12:48:07.483Z,29.80
2018-08-03T12:50:36.443Z,29.70
2018-08-03T12:53:05.411Z,29.80
2018-08-03T12:55:35.589Z,29.90
2018-08-03T12:58:04.654Z,29.90
2018-08-03T13:00:34.180Z,30.10
2018-08-03T13:03:03.142Z,30.10
2018-08-03T13:05:32.412Z,30.20
2018-08-03T13:08:01.697Z,30.10
2018-08-03T13:10:31.137Z,30.30
2018-08-03T13:13:00.337Z,30.20
2018-08-03T13:15:29.461Z,30.10
2018-08-03T13:17:58.707Z,30.10
2018-08-03T13:20:28.947Z,30.00
2018-08-03T13:23:03.166Z,30.10
2018-08-03T13:25:32.949Z,30.10
2018-08-03T13:28:04.799Z,30.00
2018-08-03T13:30:33.826Z,30.10
2018-08-03T13:33:03.034Z,30.20
2018-08-03T13:35:34.091Z,30.20
2018-08-03T13:38:03.315Z,30.20
2018-08-03T13:40:32.510Z,30.30
2018-08-03T13:43:05.119Z,30.30
2018-08-03T13:45:52.474Z,30.30
2018-08-03T13:48:21.852Z,30.30
2018-08-03T13:53:19.448Z,30.40
2018-08-03T13:55:48.291Z,30.50
2018-08-03T13:58:17.166Z,30.40
2018-08-03T14:00:46.346Z,30.20
2018-08-03T14:03:15.202Z,30.30
2018-08-03T14:05:44.139Z,30.30
2018-08-03T14:08:13.061Z,30.40
2018-08-03T14:10:42.823Z,30.40
2018-08-03T14:13:11.754Z,30.30
2018-08-03T14:15:40.749Z,30.30
2018-08-03T14:18:09.582Z,30.50
2018-08-03T14:20:38.416Z,30.30
2018-08-03T14:23:07.259Z,30.30
2018-08-03T14:25:36.437Z,30.30
2018-08-03T14:28:05.430Z,30.30
2018-08-03T14:30:34.633Z,30.40
2018-08-03T14:33:03.527Z,30.30
2018-08-03T14:35:35.819Z,30.40
2018-08-03T14:40:33.452Z,30.40
2018-08-03T14:45:31.059Z,30.50
2018-08-03T14:47:59.978Z,30.40
2018-08-03T14:50:29.012Z,30.50
2018-08-03T14:52:59.440Z,30.40
2018-08-03T14:57:56.906Z,30.50
2018-08-03T15:00:26.574Z,30.50
2018-08-03T15:02:55.814Z,30.40
2018-08-03T15:05:25.575Z,30.40
2018-08-03T15:07:54.722Z,30.40
2018-08-03T15:10:23.817Z,30.30
2018-08-03T15:12:52.721Z,30.60
2018-08-03T15:15:21.802Z,30.40
2018-08-03T15:17:51.805Z,30.30
2018-08-03T15:20:20.674Z,30.30
2018-08-03T15:22:49.578Z,30.30
2018-08-03T15:25:18.482Z,30.20
2018-08-03T15:27:47.522Z,30.40
2018-08-03T15:30:16.653Z,30.20
2018-08-03T15:32:45.622Z,30.10
2018-08-03T15:35:14.642Z,30.30
2018-08-03T15:37:43.495Z,30.30
2018-08-03T15:40:19.174Z,30.40
2018-08-03T15:42:48.009Z,30.20
2018-08-03T15:45:16.847Z,30.20
2018-08-03T15:47:45.667Z,30.40
2018-08-03T15:50:15.384Z,30.50
2018-08-03T15:55:12.770Z,30.10
2018-08-03T15:57:41.656Z,30.30
2018-08-03T16:00:10.510Z,30.40
2018-08-03T16:02:39.446Z,30.30
2018-08-03T16:05:09.047Z,30.00
2018-08-03T16:07:37.977Z,30.10
2018-08-03T16:10:06.965Z,30.10
2018-08-03T16:12:35.872Z,30.10
2018-08-03T16:15:05.295Z,30.10
2018-08-03T16:17:34.329Z,30.00
2018-08-03T16:22:32.268Z,29.90
2018-08-03T16:27:29.675Z,30.00
2018-08-03T16:29:58.510Z,29.90
2018-08-03T16:32:27.370Z,29.90
2018-08-03T16:34:56.627Z,29.90
2018-08-03T16:37:25.483Z,29.90
2018-08-03T16:39:54.352Z,29.80
2018-08-03T16:42:23.223Z,29.80
2018-08-03T16:44:52.119Z,29.90
2018-08-03T16:47:21.266Z,29.90
2018-08-03T16:52:18.630Z,29.90
2018-08-03T16:57:16.053Z,29.80
2018-08-03T16:59:44.897Z,29.80
2018-08-03T17:02:13.746Z,29.90
2018-08-03T17:04:42.587Z,29.80
2018-08-03T17:07:11.419Z,29.60
2018-08-03T17:09:40.278Z,29.50
2018-08-03T17:12:09.134Z,29.50
2018-08-03T17:14:37.975Z,29.60
2018-08-03T17:17:06.946Z,29.60
2018-08-03T17:19:35.802Z,29.60
2018-08-03T17:22:04.700Z,29.70
2018-08-03T17:24:33.985Z,29.60
2018-08-03T17:29:31.414Z,29.60
2018-08-03T17:32:00.629Z,29.50
2018-08-03T17:34:29.402Z,29.50
2018-08-03T17:36:58.289Z,29.60
2018-08-03T17:39:27.130Z,29.40
2018-08-03T17:41:56.019Z,29.40
2018-08-03T17:46:53.389Z,29.10
2018-08-03T17:51:51.092Z,29.10
2018-08-03T17:54:19.927Z,29.00
2018-08-03T17:56:48.811Z,29.00
2018-08-03T17:59:17.711Z,29.20
2018-08-03T18:01:46.831Z,29.30
2018-08-03T18:04:15.703Z,29.10
2018-08-03T18:06:44.561Z,28.70
2018-08-03T18:09:13.466Z,28.60
2018-08-03T18:11:42.362Z,28.60
2018-08-03T18:14:11.244Z,28.70
2018-08-03T18:16:40.079Z,28.70
2018-08-03T18:21:37.582Z,28.50
2018-08-03T18:24:06.450Z,28.60
2018-08-03T18:26:35.330Z,28.10
2018-08-03T18:29:04.264Z,28.40
2018-08-03T18:31:33.082Z,28.20
2018-08-03T18:36:30.457Z,27.90
2018-08-03T18:38:59.514Z,28.10
2018-08-03T18:41:28.410Z,27.90
2018-08-03T18:43:57.266Z,27.90
2018-08-03T18:46:26.174Z,27.90
2018-08-03T18:48:55.033Z,27.50
2018-08-03T18:51:24.479Z,27.40
2018-08-03T18:53:53.330Z,27.20
2018-08-03T18:56:22.228Z,26.70
2018-08-03T18:58:51.123Z,26.60
2018-08-03T19:01:19.952Z,26.40
2018-08-03T19:03:48.809Z,26.50
2018-08-03T19:06:17.654Z,26.30
2018-08-03T19:08:46.505Z,26.20
2018-08-03T19:11:15.472Z,26.10
2018-08-03T19:13:44.366Z,26.00
2018-08-03T19:16:13.586Z,26.00
2018-08-03T19:18:42.502Z,26.00
2018-08-03T19:21:11.450Z,25.80
2018-08-03T19:23:40.368Z,25.70
2018-08-03T19:26:09.201Z,25.60
2018-08-03T19:28:38.290Z,25.70
2018-08-03T19:31:07.180Z,25.50
2018-08-03T19:33:36.018Z,25.70
2018-08-03T19:36:04.922Z,25.70
2018-08-03T19:38:33.774Z,25.70
2018-08-03T19:41:02.894Z,25.60
2018-08-03T19:43:31.746Z,25.50
2018-08-03T19:46:00.607Z,25.50
2018-08-03T19:48:29.448Z,25.40
2018-08-03T19:50:58.397Z,25.30
2018-08-03T19:53:27.286Z,25.30
2018-08-03T19:55:56.106Z,25.40
2018-08-03T19:58:24.981Z,25.30
2018-08-03T20:00:53.853Z,25.30
2018-08-03T20:03:22.685Z,25.10
2018-08-03T20:05:51.580Z,25.10
2018-08-03T20:08:20.522Z,25.00
2018-08-03T20:10:49.415Z,25.00
2018-08-03T20:13:18.311Z,24.90
2018-08-03T20:15:47.284Z,24.70
2018-08-03T20:18:16.858Z,24.90
2018-08-03T20:20:45.726Z,24.80
2018-08-03T20:23:14.605Z,24.70
2018-08-03T20:25:46.933Z,24.60
2018-08-03T20:28:16.779Z,24.60
2018-08-03T20:30:46.086Z,24.40
2018-08-03T20:33:14.966Z,24.50
2018-08-03T20:35:43.857Z,24.40
2018-08-03T20:38:12.721Z,24.40
2018-08-03T20:40:41.578Z,24.30
2018-08-03T20:43:10.806Z,24.30
2018-08-03T20:45:39.674Z,24.30
2018-08-03T20:48:08.600Z,24.20
2018-08-03T20:53:06.182Z,24.10
2018-08-03T20:55:35.092Z,24.20
2018-08-03T20:58:04.121Z,24.10
2018-08-03T21:00:32.919Z,24.00
2018-08-03T21:03:02.006Z,23.90
2018-08-03T21:05:30.830Z,23.80
2018-08-03T21:07:59.666Z,23.80
2018-08-03T21:10:28.542Z,23.80
2018-08-03T21:12:57.393Z,23.80
2018-08-03T21:15:26.270Z,23.80
2018-08-03T21:20:23.938Z,23.80
2018-08-03T21:25:21.278Z,23.70
2018-08-03T21:27:50.141Z,23.70
2018-08-03T21:30:18.992Z,23.70
2018-08-03T21:32:48.047Z,23.50
2018-08-03T21:35:16.901Z,23.40
2018-08-03T21:37:45.749Z,23.60
2018-08-03T21:40:14.664Z,23.50
2018-08-03T21:42:43.523Z,23.50
2018-08-03T21:45:12.552Z,23.70
2018-08-03T21:47:41.407Z,23.60
2018-08-03T21:50:10.308Z,23.60
2018-08-03T21:52:39.128Z,23.50
2018-08-03T21:55:07.974Z,23.50
2018-08-03T21:57:37.128Z,23.40
2018-08-03T22:00:09.028Z,23.50
2018-08-03T22:02:37.903Z,23.60
2018-08-03T22:05:06.761Z,23.60
2018-08-03T22:07:35.641Z,23.40
2018-08-03T22:10:04.938Z,23.40
2018-08-03T22:12:33.811Z,23.40
2018-08-03T22:15:02.753Z,23.70
2018-08-03T22:17:31.634Z,23.70
2018-08-03T22:20:00.505Z,23.50
2018-08-03T22:22:29.329Z,23.50
2018-08-03T22:24:58.397Z,23.40
2018-08-03T22:27:27.887Z,23.50
2018-08-03T22:29:56.766Z,23.40
2018-08-03T22:32:25.685Z,23.30
2018-08-03T22:37:23.001Z,23.10
2018-08-03T22:42:20.783Z,23.40
2018-08-03T22:44:49.683Z,23.10
2018-08-03T22:47:18.701Z,23.20
2018-08-03T22:49:47.631Z,23.00
2018-08-03T22:52:17.130Z,23.00
2018-08-03T22:54:45.953Z,23.00
2018-08-03T22:59:43.392Z,22.80
2018-08-03T23:02:12.274Z,22.70
2018-08-03T23:04:41.213Z,22.70
2018-08-03T23:07:10.055Z,22.70
2018-08-03T23:09:38.943Z,22.60
2018-08-03T23:12:08.135Z,22.50
2018-08-03T23:14:36.980Z,22.50
2018-08-03T23:36:00.711Z,22.40
2018-08-03T23:38:29.614Z,22.40
2018-08-03T23:43:27.342Z,22.00
2018-08-03T23:45:56.198Z,22.40
2018-08-03T23:48:25.090Z,22.80
2018-08-03T23:53:22.787Z,23.00
2018-08-03T23:55:51.614Z,22.80
2018-08-03T23:58:20.446Z,22.90
